sensor_id;sensor_type;location;lat;lon;timestamp;temperature;humidity
4425;DHT22;2225;53.568;13.266;2022-11-20T00:01:24;6.00;95.40
4425;DHT22;2225;53.568;13.266;2022-11-20T00:03:53;6.00;95.40
4425;DHT22;2225;53.568;13.266;2022-11-20T00:06:22;6.00;95.40
4425;DHT22;2225;53.568;13.266;2022-11-20T00:08:49;6.00;95.40
4425;DHT22;2225;53.568;13.266;2022-11-20T00:11:18;6.10;95.40
4425;DHT22;2225;53.568;13.266;2022-11-20T00:13:48;6.10;95.30
4425;DHT22;2225;53.568;13.266;2022-11-20T00:16:19;6.10;95.30
4425;DHT22;2225;53.568;13.266;2022-11-20T00:18:48;6.10;95.30
4425;DHT22;2225;53.568;13.266;2022-11-20T00:21:18;6.10;95.30
4425;DHT22;2225;53.568;13.266;2022-11-20T00:23:49;6.10;95.30
4425;DHT22;2225;53.568;13.266;2022-11-20T00:26:18;6.10;95.30
4425;DHT22;2225;53.568;13.266;2022-11-20T00:28:57;6.20;95.20
4425;DHT22;2225;53.568;13.266;2022-11-20T00:31:26;6.20;95.20
4425;DHT22;2225;53.568;13.266;2022-11-20T00:33:53;6.20;95.20
4425;DHT22;2225;53.568;13.266;2022-11-20T00:36:23;6.20;95.10
4425;DHT22;2225;53.568;13.266;2022-11-20T00:38:52;6.20;95.10
4425;DHT22;2225;53.568;13.266;2022-11-20T00:41:23;6.20;95.10
4425;DHT22;2225;53.568;13.266;2022-11-20T00:43:52;6.20;95.00
4425;DHT22;2225;53.568;13.266;2022-11-20T00:46:22;6.20;95.00
4425;DHT22;2225;53.568;13.266;2022-11-20T00:48:50;6.20;95.10
4425;DHT22;2225;53.568;13.266;2022-11-20T00:51:19;6.20;95.10
4425;DHT22;2225;53.568;13.266;2022-11-20T00:53:48;6.20;95.00
4425;DHT22;2225;53.568;13.266;2022-11-20T00:56:17;6.20;95.00
4425;DHT22;2225;53.568;13.266;2022-11-20T00:58:47;6.20;95.00
4425;DHT22;2225;53.568;13.266;2022-11-20T01:03:47;6.20;95.00
4425;DHT22;2225;53.568;13.266;2022-11-20T01:06:19;6.20;95.10
4425;DHT22;2225;53.568;13.266;2022-11-20T01:08:52;6.20;95.10
4425;DHT22;2225;53.568;13.266;2022-11-20T01:11:23;6.20;95.10
4425;DHT22;2225;53.568;13.266;2022-11-20T01:13:52;6.20;95.10
4425;DHT22;2225;53.568;13.266;2022-11-20T01:16:22;6.20;95.00
4425;DHT22;2225;53.568;13.266;2022-11-20T01:18:58;6.20;95.10
4425;DHT22;2225;53.568;13.266;2022-11-20T01:21:28;6.10;95.00
4425;DHT22;2225;53.568;13.266;2022-11-20T01:23:57;6.20;95.10
4425;DHT22;2225;53.568;13.266;2022-11-20T01:26:28;6.20;95.10
4425;DHT22;2225;53.568;13.266;2022-11-20T01:28:57;6.20;95.10
4425;DHT22;2225;53.568;13.266;2022-11-20T01:31:27;6.20;95.10
4425;DHT22;2225;53.568;13.266;2022-11-20T01:33:57;6.20;95.10
4425;DHT22;2225;53.568;13.266;2022-11-20T01:36:28;6.20;95.00
4425;DHT22;2225;53.568;13.266;2022-11-20T01:38:58;6.20;95.00
4425;DHT22;2225;53.568;13.266;2022-11-20T01:41:29;6.20;95.00
4425;DHT22;2225;53.568;13.266;2022-11-20T01:44:18;6.20;95.00
4425;DHT22;2225;53.568;13.266;2022-11-20T01:47:00;6.20;95.00
4425;DHT22;2225;53.568;13.266;2022-11-20T01:49:52;6.20;95.00
4425;DHT22;2225;53.568;13.266;2022-11-20T01:52:41;6.20;95.00
4425;DHT22;2225;53.568;13.266;2022-11-20T01:55:19;6.20;95.00
4425;DHT22;2225;53.568;13.266;2022-11-20T01:57:48;6.20;95.00
4425;DHT22;2225;53.568;13.266;2022-11-20T02:00:17;6.20;95.00
4425;DHT22;2225;53.568;13.266;2022-11-20T02:02:50;6.20;95.00
4425;DHT22;2225;53.568;13.266;2022-11-20T02:05:35;6.20;95.00
4425;DHT22;2225;53.568;13.266;2022-11-20T02:08:08;6.10;95.00
4425;DHT22;2225;53.568;13.266;2022-11-20T02:10:35;6.10;95.00
4425;DHT22;2225;53.568;13.266;2022-11-20T02:13:02;6.10;95.00
4425;DHT22;2225;53.568;13.266;2022-11-20T02:15:48;6.10;95.10
4425;DHT22;2225;53.568;13.266;2022-11-20T02:18:18;6.10;95.10
4425;DHT22;2225;53.568;13.266;2022-11-20T02:20:48;6.10;95.20
4425;DHT22;2225;53.568;13.266;2022-11-20T02:23:32;6.10;95.20
4425;DHT22;2225;53.568;13.266;2022-11-20T02:26:11;6.10;95.20
4425;DHT22;2225;53.568;13.266;2022-11-20T02:28:39;6.10;95.30
4425;DHT22;2225;53.568;13.266;2022-11-20T02:31:06;6.10;95.30
4425;DHT22;2225;53.568;13.266;2022-11-20T02:33:34;6.10;95.30
4425;DHT22;2225;53.568;13.266;2022-11-20T02:36:01;6.10;95.30
4425;DHT22;2225;53.568;13.266;2022-11-20T02:38:28;6.10;95.30
4425;DHT22;2225;53.568;13.266;2022-11-20T02:40:55;6.10;95.20
4425;DHT22;2225;53.568;13.266;2022-11-20T02:43:22;6.10;95.30
4425;DHT22;2225;53.568;13.266;2022-11-20T02:45:50;6.10;95.20
4425;DHT22;2225;53.568;13.266;2022-11-20T02:48:16;6.10;95.20
4425;DHT22;2225;53.568;13.266;2022-11-20T02:50:43;6.10;95.20
4425;DHT22;2225;53.568;13.266;2022-11-20T02:53:10;6.10;95.20
4425;DHT22;2225;53.568;13.266;2022-11-20T02:55:37;6.10;95.20
4425;DHT22;2225;53.568;13.266;2022-11-20T02:58:04;6.10;95.30
4425;DHT22;2225;53.568;13.266;2022-11-20T03:00:31;6.10;95.30
4425;DHT22;2225;53.568;13.266;2022-11-20T03:02:58;6.20;95.30
4425;DHT22;2225;53.568;13.266;2022-11-20T03:05:25;6.10;95.30
4425;DHT22;2225;53.568;13.266;2022-11-20T03:07:52;6.20;95.40
4425;DHT22;2225;53.568;13.266;2022-11-20T03:10:19;6.20;95.30
4425;DHT22;2225;53.568;13.266;2022-11-20T03:12:46;6.20;95.30
4425;DHT22;2225;53.568;13.266;2022-11-20T03:15:13;6.20;95.30
4425;DHT22;2225;53.568;13.266;2022-11-20T03:17:39;6.20;95.30
4425;DHT22;2225;53.568;13.266;2022-11-20T03:20:07;6.20;95.20
4425;DHT22;2225;53.568;13.266;2022-11-20T03:22:35;6.20;95.50
4425;DHT22;2225;53.568;13.266;2022-11-20T03:25:02;6.20;95.20
4425;DHT22;2225;53.568;13.266;2022-11-20T03:27:33;6.20;95.20
4425;DHT22;2225;53.568;13.266;2022-11-20T03:30:01;6.20;95.30
4425;DHT22;2225;53.568;13.266;2022-11-20T03:32:28;6.20;95.30
4425;DHT22;2225;53.568;13.266;2022-11-20T03:34:54;6.20;95.30
4425;DHT22;2225;53.568;13.266;2022-11-20T03:37:21;6.20;95.30
4425;DHT22;2225;53.568;13.266;2022-11-20T03:39:48;6.20;95.30
4425;DHT22;2225;53.568;13.266;2022-11-20T03:42:15;6.20;95.30
4425;DHT22;2225;53.568;13.266;2022-11-20T03:45:01;6.20;95.30
4425;DHT22;2225;53.568;13.266;2022-11-20T03:47:28;6.20;95.30
4425;DHT22;2225;53.568;13.266;2022-11-20T03:49:55;6.10;95.30
4425;DHT22;2225;53.568;13.266;2022-11-20T03:52:21;6.10;95.30
4425;DHT22;2225;53.568;13.266;2022-11-20T03:54:48;6.10;95.30
4425;DHT22;2225;53.568;13.266;2022-11-20T03:57:15;6.10;95.30
4425;DHT22;2225;53.568;13.266;2022-11-20T03:59:42;6.10;95.30
4425;DHT22;2225;53.568;13.266;2022-11-20T04:02:09;6.10;95.30
4425;DHT22;2225;53.568;13.266;2022-11-20T04:04:36;6.10;95.30
4425;DHT22;2225;53.568;13.266;2022-11-20T04:07:03;6.10;95.30
4425;DHT22;2225;53.568;13.266;2022-11-20T04:09:30;6.10;95.30
4425;DHT22;2225;53.568;13.266;2022-11-20T04:11:57;6.10;95.30
4425;DHT22;2225;53.568;13.266;2022-11-20T04:14:24;6.10;95.30
4425;DHT22;2225;53.568;13.266;2022-11-20T04:16:51;6.10;95.30
4425;DHT22;2225;53.568;13.266;2022-11-20T04:19:18;6.10;95.30
4425;DHT22;2225;53.568;13.266;2022-11-20T04:21:45;6.10;95.30
4425;DHT22;2225;53.568;13.266;2022-11-20T04:24:12;6.10;95.30
4425;DHT22;2225;53.568;13.266;2022-11-20T04:26:39;6.10;95.60
4425;DHT22;2225;53.568;13.266;2022-11-20T04:29:06;6.10;95.30
4425;DHT22;2225;53.568;13.266;2022-11-20T04:31:36;6.10;95.30
4425;DHT22;2225;53.568;13.266;2022-11-20T04:34:05;6.10;95.30
4425;DHT22;2225;53.568;13.266;2022-11-20T04:36:34;6.10;95.30
4425;DHT22;2225;53.568;13.266;2022-11-20T04:39:03;6.10;95.30
4425;DHT22;2225;53.568;13.266;2022-11-20T04:41:35;6.10;95.30
4425;DHT22;2225;53.568;13.266;2022-11-20T04:44:04;6.10;95.30
4425;DHT22;2225;53.568;13.266;2022-11-20T04:46:35;6.10;95.30
4425;DHT22;2225;53.568;13.266;2022-11-20T04:49:06;6.10;95.30
4425;DHT22;2225;53.568;13.266;2022-11-20T04:51:34;6.10;95.30
4425;DHT22;2225;53.568;13.266;2022-11-20T04:54:01;6.10;95.30
4425;DHT22;2225;53.568;13.266;2022-11-20T04:56:28;6.10;95.30
4425;DHT22;2225;53.568;13.266;2022-11-20T04:58:55;6.10;95.20
4425;DHT22;2225;53.568;13.266;2022-11-20T05:01:24;6.10;95.20
4425;DHT22;2225;53.568;13.266;2022-11-20T05:03:51;6.10;95.20
4425;DHT22;2225;53.568;13.266;2022-11-20T05:06:20;6.10;95.20
4425;DHT22;2225;53.568;13.266;2022-11-20T05:08:48;6.10;95.30
4425;DHT22;2225;53.568;13.266;2022-11-20T05:11:17;6.10;95.30
4425;DHT22;2225;53.568;13.266;2022-11-20T05:13:46;6.10;95.30
4425;DHT22;2225;53.568;13.266;2022-11-20T05:16:22;6.10;95.20
4425;DHT22;2225;53.568;13.266;2022-11-20T05:18:51;6.20;95.30
4425;DHT22;2225;53.568;13.266;2022-11-20T05:21:19;6.20;95.30
4425;DHT22;2225;53.568;13.266;2022-11-20T05:23:46;6.20;95.20
4425;DHT22;2225;53.568;13.266;2022-11-20T05:26:21;6.20;95.30
4425;DHT22;2225;53.568;13.266;2022-11-20T05:28:49;6.20;95.30
4425;DHT22;2225;53.568;13.266;2022-11-20T05:31:21;6.20;95.20
4425;DHT22;2225;53.568;13.266;2022-11-20T05:33:55;6.20;95.10
4425;DHT22;2225;53.568;13.266;2022-11-20T05:36:23;6.20;95.10
4425;DHT22;2225;53.568;13.266;2022-11-20T05:38:50;6.30;95.10
4425;DHT22;2225;53.568;13.266;2022-11-20T05:41:22;6.30;95.10
4425;DHT22;2225;53.568;13.266;2022-11-20T05:43:49;6.30;95.10
4425;DHT22;2225;53.568;13.266;2022-11-20T05:46:19;6.30;95.10
4425;DHT22;2225;53.568;13.266;2022-11-20T05:48:53;6.30;95.10
4425;DHT22;2225;53.568;13.266;2022-11-20T05:51:22;6.30;95.00
4425;DHT22;2225;53.568;13.266;2022-11-20T05:53:49;6.30;95.00
4425;DHT22;2225;53.568;13.266;2022-11-20T05:56:18;6.30;95.10
4425;DHT22;2225;53.568;13.266;2022-11-20T05:58:47;6.30;95.00
4425;DHT22;2225;53.568;13.266;2022-11-20T06:01:18;6.30;95.10
4425;DHT22;2225;53.568;13.266;2022-11-20T06:03:50;6.30;95.10
4425;DHT22;2225;53.568;13.266;2022-11-20T06:06:19;6.30;95.00
4425;DHT22;2225;53.568;13.266;2022-11-20T06:08:46;6.40;95.10
4425;DHT22;2225;53.568;13.266;2022-11-20T06:11:14;6.40;95.10
4425;DHT22;2225;53.568;13.266;2022-11-20T06:13:42;6.40;95.00
4425;DHT22;2225;53.568;13.266;2022-11-20T06:16:10;6.40;95.00
4425;DHT22;2225;53.568;13.266;2022-11-20T06:18:38;6.40;95.00
4425;DHT22;2225;53.568;13.266;2022-11-20T06:21:10;6.40;95.00
4425;DHT22;2225;53.568;13.266;2022-11-20T06:23:39;6.40;95.00
4425;DHT22;2225;53.568;13.266;2022-11-20T06:26:12;6.40;95.00
4425;DHT22;2225;53.568;13.266;2022-11-20T06:28:41;6.40;95.00
4425;DHT22;2225;53.568;13.266;2022-11-20T06:31:10;6.40;95.00
4425;DHT22;2225;53.568;13.266;2022-11-20T06:33:38;6.40;95.10
4425;DHT22;2225;53.568;13.266;2022-11-20T06:36:06;6.40;95.00
4425;DHT22;2225;53.568;13.266;2022-11-20T06:38:37;6.40;95.00
4425;DHT22;2225;53.568;13.266;2022-11-20T06:41:14;6.40;95.00
4425;DHT22;2225;53.568;13.266;2022-11-20T06:43:42;6.40;95.00
4425;DHT22;2225;53.568;13.266;2022-11-20T06:46:11;6.40;95.00
4425;DHT22;2225;53.568;13.266;2022-11-20T06:48:39;6.40;95.00
4425;DHT22;2225;53.568;13.266;2022-11-20T06:51:07;6.40;94.90
4425;DHT22;2225;53.568;13.266;2022-11-20T06:53:35;6.40;94.90
4425;DHT22;2225;53.568;13.266;2022-11-20T06:56:02;6.40;94.90
4425;DHT22;2225;53.568;13.266;2022-11-20T06:58:31;6.40;94.90
4425;DHT22;2225;53.568;13.266;2022-11-20T07:01:00;6.40;94.90
4425;DHT22;2225;53.568;13.266;2022-11-20T07:03:29;6.40;95.00
4425;DHT22;2225;53.568;13.266;2022-11-20T07:05:57;6.50;95.00
4425;DHT22;2225;53.568;13.266;2022-11-20T07:08:25;6.50;95.00
4425;DHT22;2225;53.568;13.266;2022-11-20T07:10:52;6.40;94.90
4425;DHT22;2225;53.568;13.266;2022-11-20T07:13:19;6.40;94.90
4425;DHT22;2225;53.568;13.266;2022-11-20T07:15:46;6.50;94.90
4425;DHT22;2225;53.568;13.266;2022-11-20T07:18:12;6.50;94.90
4425;DHT22;2225;53.568;13.266;2022-11-20T07:20:39;6.50;95.00
4425;DHT22;2225;53.568;13.266;2022-11-20T07:23:06;6.50;95.00
4425;DHT22;2225;53.568;13.266;2022-11-20T07:25:33;6.50;95.00
4425;DHT22;2225;53.568;13.266;2022-11-20T07:28:00;6.50;95.00
4425;DHT22;2225;53.568;13.266;2022-11-20T07:30:28;6.50;94.90
4425;DHT22;2225;53.568;13.266;2022-11-20T07:32:56;6.50;95.00
4425;DHT22;2225;53.568;13.266;2022-11-20T07:35:24;6.50;94.90
4425;DHT22;2225;53.568;13.266;2022-11-20T07:37:51;6.50;94.90
4425;DHT22;2225;53.568;13.266;2022-11-20T07:40:18;6.50;95.00
4425;DHT22;2225;53.568;13.266;2022-11-20T07:42:53;6.50;95.10
4425;DHT22;2225;53.568;13.266;2022-11-20T07:45:22;6.60;95.00
4425;DHT22;2225;53.568;13.266;2022-11-20T07:47:50;6.60;94.90
4425;DHT22;2225;53.568;13.266;2022-11-20T07:50:18;6.60;95.00
4425;DHT22;2225;53.568;13.266;2022-11-20T07:52:45;6.60;95.00
4425;DHT22;2225;53.568;13.266;2022-11-20T07:55:12;6.60;95.00
4425;DHT22;2225;53.568;13.266;2022-11-20T07:57:39;6.60;94.90
4425;DHT22;2225;53.568;13.266;2022-11-20T08:00:08;6.60;94.90
4425;DHT22;2225;53.568;13.266;2022-11-20T08:02:40;6.60;94.90
4425;DHT22;2225;53.568;13.266;2022-11-20T08:05:10;6.60;94.90
4425;DHT22;2225;53.568;13.266;2022-11-20T08:07:38;6.60;94.90
4425;DHT22;2225;53.568;13.266;2022-11-20T08:10:07;6.60;94.90
4425;DHT22;2225;53.568;13.266;2022-11-20T08:12:35;6.70;95.00
4425;DHT22;2225;53.568;13.266;2022-11-20T08:15:20;6.70;94.90
4425;DHT22;2225;53.568;13.266;2022-11-20T08:17:47;6.70;94.80
4425;DHT22;2225;53.568;13.266;2022-11-20T08:20:34;6.70;94.80
4425;DHT22;2225;53.568;13.266;2022-11-20T08:23:03;6.70;94.80
4425;DHT22;2225;53.568;13.266;2022-11-20T08:25:35;6.70;94.80
4425;DHT22;2225;53.568;13.266;2022-11-20T08:28:05;6.70;94.80
4425;DHT22;2225;53.568;13.266;2022-11-20T08:30:46;6.70;94.80
4425;DHT22;2225;53.568;13.266;2022-11-20T08:33:13;6.70;94.80
4425;DHT22;2225;53.568;13.266;2022-11-20T08:35:39;6.80;94.80
4425;DHT22;2225;53.568;13.266;2022-11-20T08:38:08;6.80;94.80
4425;DHT22;2225;53.568;13.266;2022-11-20T08:40:35;6.80;94.70
4425;DHT22;2225;53.568;13.266;2022-11-20T08:43:02;6.80;94.70
4425;DHT22;2225;53.568;13.266;2022-11-20T08:45:29;6.80;94.70
4425;DHT22;2225;53.568;13.266;2022-11-20T08:48:02;6.80;94.70
4425;DHT22;2225;53.568;13.266;2022-11-20T08:50:29;6.80;94.70
4425;DHT22;2225;53.568;13.266;2022-11-20T08:53:05;6.80;94.70
4425;DHT22;2225;53.568;13.266;2022-11-20T08:55:32;6.90;94.70
4425;DHT22;2225;53.568;13.266;2022-11-20T08:58:05;6.90;94.80
4425;DHT22;2225;53.568;13.266;2022-11-20T09:00:34;6.90;94.80
4425;DHT22;2225;53.568;13.266;2022-11-20T09:03:01;6.90;94.80
4425;DHT22;2225;53.568;13.266;2022-11-20T09:05:28;6.90;94.80
4425;DHT22;2225;53.568;13.266;2022-11-20T09:07:56;6.90;94.70
4425;DHT22;2225;53.568;13.266;2022-11-20T09:10:23;6.90;94.60
4425;DHT22;2225;53.568;13.266;2022-11-20T09:12:52;6.90;94.60
4425;DHT22;2225;53.568;13.266;2022-11-20T09:15:19;6.90;94.70
4425;DHT22;2225;53.568;13.266;2022-11-20T09:17:57;7.00;94.60
4425;DHT22;2225;53.568;13.266;2022-11-20T09:20:26;7.00;94.70
4425;DHT22;2225;53.568;13.266;2022-11-20T09:22:55;7.00;94.70
4425;DHT22;2225;53.568;13.266;2022-11-20T09:25:23;7.00;94.80
4425;DHT22;2225;53.568;13.266;2022-11-20T09:27:57;7.00;94.80
4425;DHT22;2225;53.568;13.266;2022-11-20T09:30:25;7.00;94.80
4425;DHT22;2225;53.568;13.266;2022-11-20T09:32:53;7.00;94.70
4425;DHT22;2225;53.568;13.266;2022-11-20T09:35:20;7.00;94.70
4425;DHT22;2225;53.568;13.266;2022-11-20T09:37:47;7.10;94.70
4425;DHT22;2225;53.568;13.266;2022-11-20T09:40:26;7.10;94.80
4425;DHT22;2225;53.568;13.266;2022-11-20T09:43:07;7.10;94.70
4425;DHT22;2225;53.568;13.266;2022-11-20T09:49:07;7.20;94.70
4425;DHT22;2225;53.568;13.266;2022-11-20T09:51:52;7.20;94.60
4425;DHT22;2225;53.568;13.266;2022-11-20T09:54:29;7.20;94.70
4425;DHT22;2225;53.568;13.266;2022-11-20T09:57:36;7.20;94.60
4425;DHT22;2225;53.568;13.266;2022-11-20T10:00:10;7.20;94.50
4425;DHT22;2225;53.568;13.266;2022-11-20T10:11:06;7.30;94.40
4425;DHT22;2225;53.568;13.266;2022-11-20T10:14:21;7.30;94.40
4425;DHT22;2225;53.568;13.266;2022-11-20T10:26:16;7.30;94.40
4425;DHT22;2225;53.568;13.266;2022-11-20T10:29:06;7.20;94.30
4425;DHT22;2225;53.568;13.266;2022-11-20T10:31:45;7.20;94.30
4425;DHT22;2225;53.568;13.266;2022-11-20T10:37:28;7.20;94.40
4425;DHT22;2225;53.568;13.266;2022-11-20T10:40:05;7.20;94.50
4425;DHT22;2225;53.568;13.266;2022-11-20T10:42:48;7.10;94.60
4425;DHT22;2225;53.568;13.266;2022-11-20T10:47:56;7.20;94.60
4425;DHT22;2225;53.568;13.266;2022-11-20T10:50:37;7.20;94.60
4425;DHT22;2225;53.568;13.266;2022-11-20T10:53:17;7.20;94.60
4425;DHT22;2225;53.568;13.266;2022-11-20T10:55:50;7.30;94.50
4425;DHT22;2225;53.568;13.266;2022-11-20T10:58:45;7.30;94.30
4425;DHT22;2225;53.568;13.266;2022-11-20T11:01:20;7.30;94.20
4425;DHT22;2225;53.568;13.266;2022-11-20T11:03:55;7.30;94.20
4425;DHT22;2225;53.568;13.266;2022-11-20T11:06:33;7.20;94.20
4425;DHT22;2225;53.568;13.266;2022-11-20T11:09:25;7.30;94.30
4425;DHT22;2225;53.568;13.266;2022-11-20T11:11:58;7.30;94.30
4425;DHT22;2225;53.568;13.266;2022-11-20T11:14:42;7.30;94.40
4425;DHT22;2225;53.568;13.266;2022-11-20T11:17:33;7.30;94.40
4425;DHT22;2225;53.568;13.266;2022-11-20T11:22:57;7.30;94.20
4425;DHT22;2225;53.568;13.266;2022-11-20T11:25:31;7.30;94.10
4425;DHT22;2225;53.568;13.266;2022-11-20T11:28:03;7.30;94.10
4425;DHT22;2225;53.568;13.266;2022-11-20T11:30:42;7.30;94.10
4425;DHT22;2225;53.568;13.266;2022-11-20T11:33:32;7.30;94.20
4425;DHT22;2225;53.568;13.266;2022-11-20T11:36:03;7.20;94.10
4425;DHT22;2225;53.568;13.266;2022-11-20T11:38:39;7.20;94.00
4425;DHT22;2225;53.568;13.266;2022-11-20T11:41:10;7.20;94.10
4425;DHT22;2225;53.568;13.266;2022-11-20T11:43:53;7.20;94.10
4425;DHT22;2225;53.568;13.266;2022-11-20T11:46:49;7.10;94.10
4425;DHT22;2225;53.568;13.266;2022-11-20T11:49:20;7.10;94.20
4425;DHT22;2225;53.568;13.266;2022-11-20T11:52:04;7.10;94.20
4425;DHT22;2225;53.568;13.266;2022-11-20T11:57:20;7.10;94.10
4425;DHT22;2225;53.568;13.266;2022-11-20T12:00:12;7.10;94.20
4425;DHT22;2225;53.568;13.266;2022-11-20T12:08:04;7.10;94.30
4425;DHT22;2225;53.568;13.266;2022-11-20T12:13:43;7.10;94.30
4425;DHT22;2225;53.568;13.266;2022-11-20T12:16:18;7.10;94.30
4425;DHT22;2225;53.568;13.266;2022-11-20T12:18:49;7.10;94.20
4425;DHT22;2225;53.568;13.266;2022-11-20T12:21:20;7.10;94.10
4425;DHT22;2225;53.568;13.266;2022-11-20T12:26:49;7.00;94.10
4425;DHT22;2225;53.568;13.266;2022-11-20T12:29:48;7.00;94.10
4425;DHT22;2225;53.568;13.266;2022-11-20T12:38:49;7.10;93.90
4425;DHT22;2225;53.568;13.266;2022-11-20T12:41:45;7.00;93.60
4425;DHT22;2225;53.568;13.266;2022-11-20T12:45:07;7.00;93.60
4425;DHT22;2225;53.568;13.266;2022-11-20T12:47:52;7.00;93.60
4425;DHT22;2225;53.568;13.266;2022-11-20T12:54:01;6.90;93.30
4425;DHT22;2225;53.568;13.266;2022-11-20T12:59:48;6.90;93.30
4425;DHT22;2225;53.568;13.266;2022-11-20T13:05:43;6.80;93.40
4425;DHT22;2225;53.568;13.266;2022-11-20T13:08:22;6.80;93.10
4425;DHT22;2225;53.568;13.266;2022-11-20T13:14:19;6.70;93.20
4425;DHT22;2225;53.568;13.266;2022-11-20T13:19:48;6.80;93.20
4425;DHT22;2225;53.568;13.266;2022-11-20T13:22:26;6.70;93.10
4425;DHT22;2225;53.568;13.266;2022-11-20T13:24:53;6.70;92.90
4425;DHT22;2225;53.568;13.266;2022-11-20T13:27:22;6.70;92.90
4425;DHT22;2225;53.568;13.266;2022-11-20T13:30:17;6.70;92.70
4425;DHT22;2225;53.568;13.266;2022-11-20T13:32:49;6.70;92.70
4425;DHT22;2225;53.568;13.266;2022-11-20T13:35:40;6.60;92.70
4425;DHT22;2225;53.568;13.266;2022-11-20T13:38:13;6.70;92.90
4425;DHT22;2225;53.568;13.266;2022-11-20T13:40:58;6.70;92.90
4425;DHT22;2225;53.568;13.266;2022-11-20T13:43:47;6.70;93.00
4425;DHT22;2225;53.568;13.266;2022-11-20T13:46:14;6.70;93.00
4425;DHT22;2225;53.568;13.266;2022-11-20T13:48:46;6.70;93.10
4425;DHT22;2225;53.568;13.266;2022-11-20T13:51:40;6.70;93.20
4425;DHT22;2225;53.568;13.266;2022-11-20T13:54:44;6.80;93.10
4425;DHT22;2225;53.568;13.266;2022-11-20T14:00:55;6.80;93.00
4425;DHT22;2225;53.568;13.266;2022-11-20T14:03:26;6.90;93.00
4425;DHT22;2225;53.568;13.266;2022-11-20T14:08:58;6.90;92.90
4425;DHT22;2225;53.568;13.266;2022-11-20T14:11:30;6.90;92.90
4425;DHT22;2225;53.568;13.266;2022-11-20T14:13:59;6.90;92.90
4425;DHT22;2225;53.568;13.266;2022-11-20T14:16:33;6.90;92.90
4425;DHT22;2225;53.568;13.266;2022-11-20T14:22:06;7.00;92.80
4425;DHT22;2225;53.568;13.266;2022-11-20T14:24:44;6.90;92.80
4425;DHT22;2225;53.568;13.266;2022-11-20T14:27:14;7.00;92.90
4425;DHT22;2225;53.568;13.266;2022-11-20T14:29:50;6.90;92.80
4425;DHT22;2225;53.568;13.266;2022-11-20T14:32:19;6.90;92.80
4425;DHT22;2225;53.568;13.266;2022-11-20T14:34:49;6.90;92.80
4425;DHT22;2225;53.568;13.266;2022-11-20T14:37:22;6.90;92.70
4425;DHT22;2225;53.568;13.266;2022-11-20T14:39:53;6.90;92.70
4425;DHT22;2225;53.568;13.266;2022-11-20T14:42:24;6.90;92.70
4425;DHT22;2225;53.568;13.266;2022-11-20T14:44:55;6.90;92.70
4425;DHT22;2225;53.568;13.266;2022-11-20T14:47:28;6.90;92.80
4425;DHT22;2225;53.568;13.266;2022-11-20T14:49:57;6.80;92.70
4425;DHT22;2225;53.568;13.266;2022-11-20T14:52:26;6.80;92.60
4425;DHT22;2225;53.568;13.266;2022-11-20T14:54:57;6.80;92.60
4425;DHT22;2225;53.568;13.266;2022-11-20T14:57:29;6.70;92.70
4425;DHT22;2225;53.568;13.266;2022-11-20T15:00:19;6.70;92.70
4425;DHT22;2225;53.568;13.266;2022-11-20T15:02:49;6.70;92.70
4425;DHT22;2225;53.568;13.266;2022-11-20T15:05:19;6.60;92.70
4425;DHT22;2225;53.568;13.266;2022-11-20T15:07:51;6.60;92.80
4425;DHT22;2225;53.568;13.266;2022-11-20T15:10:30;6.60;92.90
4425;DHT22;2225;53.568;13.266;2022-11-20T15:13:03;6.50;93.00
4425;DHT22;2225;53.568;13.266;2022-11-20T15:15:46;6.50;93.00
4425;DHT22;2225;53.568;13.266;2022-11-20T15:18:38;6.50;93.00
4425;DHT22;2225;53.568;13.266;2022-11-20T15:21:13;6.50;93.10
4425;DHT22;2225;53.568;13.266;2022-11-20T15:23:41;6.40;93.10
4425;DHT22;2225;53.568;13.266;2022-11-20T15:26:10;6.40;93.10
4425;DHT22;2225;53.568;13.266;2022-11-20T15:28:46;6.40;93.20
4425;DHT22;2225;53.568;13.266;2022-11-20T15:31:19;6.40;93.30
4425;DHT22;2225;53.568;13.266;2022-11-20T15:33:47;6.40;93.30
4425;DHT22;2225;53.568;13.266;2022-11-20T15:36:14;6.30;93.50
4425;DHT22;2225;53.568;13.266;2022-11-20T15:38:41;6.30;93.50
4425;DHT22;2225;53.568;13.266;2022-11-20T15:41:08;6.30;93.60
4425;DHT22;2225;53.568;13.266;2022-11-20T15:43:36;6.30;93.70
4425;DHT22;2225;53.568;13.266;2022-11-20T15:46:08;6.30;93.70
4425;DHT22;2225;53.568;13.266;2022-11-20T15:48:39;6.30;93.70
4425;DHT22;2225;53.568;13.266;2022-11-20T15:51:36;6.30;93.80
4425;DHT22;2225;53.568;13.266;2022-11-20T15:54:18;6.30;93.80
4425;DHT22;2225;53.568;13.266;2022-11-20T15:56:49;6.30;93.80
4425;DHT22;2225;53.568;13.266;2022-11-20T15:59:18;6.30;93.80
4425;DHT22;2225;53.568;13.266;2022-11-20T16:01:46;6.30;93.80
4425;DHT22;2225;53.568;13.266;2022-11-20T16:04:15;6.30;93.80
4425;DHT22;2225;53.568;13.266;2022-11-20T16:06:42;6.30;93.80
4425;DHT22;2225;53.568;13.266;2022-11-20T16:09:09;6.30;93.80
4425;DHT22;2225;53.568;13.266;2022-11-20T16:11:36;6.30;93.70
4425;DHT22;2225;53.568;13.266;2022-11-20T16:14:04;6.30;93.80
4425;DHT22;2225;53.568;13.266;2022-11-20T16:16:51;6.30;93.70
4425;DHT22;2225;53.568;13.266;2022-11-20T16:19:17;6.30;93.70
4425;DHT22;2225;53.568;13.266;2022-11-20T16:21:45;6.30;93.70
4425;DHT22;2225;53.568;13.266;2022-11-20T16:24:13;6.30;93.50
4425;DHT22;2225;53.568;13.266;2022-11-20T16:26:41;6.30;93.40
4425;DHT22;2225;53.568;13.266;2022-11-20T16:29:08;6.30;93.40
4425;DHT22;2225;53.568;13.266;2022-11-20T16:31:36;6.30;93.30
4425;DHT22;2225;53.568;13.266;2022-11-20T16:34:05;6.30;93.30
4425;DHT22;2225;53.568;13.266;2022-11-20T16:36:42;6.20;93.20
4425;DHT22;2225;53.568;13.266;2022-11-20T16:39:10;6.20;93.20
4425;DHT22;2225;53.568;13.266;2022-11-20T16:41:37;6.20;93.20
4425;DHT22;2225;53.568;13.266;2022-11-20T16:44:09;6.10;93.30
4425;DHT22;2225;53.568;13.266;2022-11-20T16:46:37;6.10;93.40
4425;DHT22;2225;53.568;13.266;2022-11-20T16:49:05;6.10;93.30
4425;DHT22;2225;53.568;13.266;2022-11-20T16:51:35;6.10;93.70
4425;DHT22;2225;53.568;13.266;2022-11-20T16:54:06;6.10;93.50
4425;DHT22;2225;53.568;13.266;2022-11-20T16:56:34;6.10;93.50
4425;DHT22;2225;53.568;13.266;2022-11-20T16:59:01;6.10;93.40
4425;DHT22;2225;53.568;13.266;2022-11-20T17:01:28;6.00;93.30
4425;DHT22;2225;53.568;13.266;2022-11-20T17:04:14;6.00;93.30
4425;DHT22;2225;53.568;13.266;2022-11-20T17:06:42;6.00;93.20
4425;DHT22;2225;53.568;13.266;2022-11-20T17:09:09;5.90;93.10
4425;DHT22;2225;53.568;13.266;2022-11-20T17:11:37;5.90;93.00
4425;DHT22;2225;53.568;13.266;2022-11-20T17:14:04;5.80;92.90
4425;DHT22;2225;53.568;13.266;2022-11-20T17:16:35;5.70;93.00
4425;DHT22;2225;53.568;13.266;2022-11-20T17:19:03;5.70;93.00
4425;DHT22;2225;53.568;13.266;2022-11-20T17:21:32;5.60;93.00
4425;DHT22;2225;53.568;13.266;2022-11-20T17:24:03;5.60;93.10
4425;DHT22;2225;53.568;13.266;2022-11-20T17:26:33;5.50;93.10
4425;DHT22;2225;53.568;13.266;2022-11-20T17:29:12;5.50;93.10
4425;DHT22;2225;53.568;13.266;2022-11-20T17:31:41;5.40;93.20
4425;DHT22;2225;53.568;13.266;2022-11-20T17:34:11;5.40;93.30
4425;DHT22;2225;53.568;13.266;2022-11-20T17:36:39;5.30;93.30
4425;DHT22;2225;53.568;13.266;2022-11-20T17:39:12;5.30;93.40
4425;DHT22;2225;53.568;13.266;2022-11-20T17:41:40;5.30;93.40
4425;DHT22;2225;53.568;13.266;2022-11-20T17:44:11;5.20;93.40
4425;DHT22;2225;53.568;13.266;2022-11-20T17:46:38;5.20;93.40
4425;DHT22;2225;53.568;13.266;2022-11-20T17:49:06;5.10;93.40
4425;DHT22;2225;53.568;13.266;2022-11-20T17:51:33;5.10;93.40